Time;durP1;ratioP1;P1;durP2;ratioP2;P2;SDS_P1;SDS_P2;PMS_P1;PMS_P2;Temp;Humidity;BMP_temperature;BMP_pressure;BME280_temperature;BME280_humidity;BME280_pressure;Samples;Min_cycle;Max_cycle;Signal;HPM_P1;HPM_P2
2022/07/06 00:02:08;;;;;;;4.78;1.42;;;;;;;13.69;87.74;102405.75;5074562;28;20686;-52
2022/07/06 00:04:36;;;;;;;5.30;1.30;;;;;;;13.60;88.25;102407.06;5070507;28;20036;-50
2022/07/06 00:07:04;;;;;;;2.80;1.15;;;;;;;13.61;88.43;102398.22;5073169;28;20567;-52
2022/07/06 00:09:32;;;;;;;4.43;1.40;;;;;;;13.56;88.89;102394.94;5055116;28;20133;-48
2022/07/06 00:12:02;;;;;;;3.97;1.55;;;;;;;13.57;89.07;102396.66;5074940;28;20375;-57
2022/07/06 00:14:30;;;;;;;6.25;1.77;;;;;;;13.59;88.72;102394.78;5073424;28;20052;-58
2022/07/06 00:16:58;;;;;;;5.72;1.60;;;;;;;13.53;89.38;102401.25;5074990;28;20052;-58
2022/07/06 00:19:27;;;;;;;3.42;1.40;;;;;;;13.52;89.79;102398.69;5070930;28;20641;-51
2022/07/06 00:21:55;;;;;;;5.82;1.70;;;;;;;13.47;89.66;102401.59;5071936;28;20048;-53
2022/07/06 00:24:23;;;;;;;5.28;1.67;;;;;;;13.46;90.28;102399.03;5074134;28;20143;-56
2022/07/06 00:26:51;;;;;;;6.07;1.70;;;;;;;13.40;90.89;102404.63;5072212;28;20098;-50
2022/07/06 00:29:21;;;;;;;6.65;1.67;;;;;;;13.41;90.80;102408.97;5074493;28;20135;-58
2022/07/06 00:31:49;;;;;;;4.40;1.50;;;;;;;13.35;91.62;102405.72;5074268;28;20063;-52
2022/07/06 00:34:17;;;;;;;5.95;1.65;;;;;;;13.34;91.33;102417.19;5070552;28;20088;-50
2022/07/06 00:36:45;;;;;;;4.93;1.40;;;;;;;13.29;91.93;102408.66;5054969;28;20036;-54
2022/07/06 00:39:14;;;;;;;8.02;1.75;;;;;;;13.35;91.77;102408.38;5073922;28;20042;-57
2022/07/06 00:41:42;;;;;;;4.07;1.40;;;;;;;13.23;92.65;102411.59;5073504;28;20121;-58
2022/07/06 00:44:10;;;;;;;5.43;1.55;;;;;;;13.21;92.87;102407.34;5072510;28;20450;-58
2022/07/06 00:46:39;;;;;;;4.80;1.63;;;;;;;13.27;92.72;102413.16;5073495;28;20423;-53
2022/07/06 00:50:13;;;;;;;5.55;1.60;;;;;;;13.17;93.07;102412.78;5073843;28;20530;-50
2022/07/06 00:51:57;;;;;;;4.30;1.40;;;;;;;13.14;93.59;102410.31;5073977;28;20048;-51
2022/07/06 00:54:26;;;;;;;3.25;1.38;;;;;;;13.12;93.75;102409.53;5073141;28;20072;-51
2022/07/06 00:56:54;;;;;;;5.05;1.70;;;;;;;13.05;94.08;102415.19;5073147;28;20384;-50
2022/07/06 00:59:23;;;;;;;6.38;1.73;;;;;;;13.13;93.49;102413.00;5073706;28;20037;-58
2022/07/06 01:01:53;;;;;;;5.30;1.80;;;;;;;13.09;94.32;102409.69;5069776;28;20102;-53
2022/07/06 01:04:21;;;;;;;8.23;1.60;;;;;;;13.04;94.37;102402.94;5073517;28;20052;-58
2022/07/06 01:06:50;;;;;;;5.55;1.48;;;;;;;13.06;94.62;102399.28;5072999;28;20040;-60
2022/07/06 01:09:19;;;;;;;5.10;1.85;;;;;;;12.96;95.01;102398.03;5073170;28;20072;-58
2022/07/06 01:11:47;;;;;;;4.95;1.98;;;;;;;12.99;95.62;102404.03;5073736;28;20492;-58
2022/07/06 01:14:15;;;;;;;5.90;2.22;;;;;;;12.95;96.18;102405.09;5073593;28;20079;-51
2022/07/06 01:16:44;;;;;;;6.85;1.67;;;;;;;12.92;96.29;102399.97;5073152;28;20051;-58
2022/07/06 01:19:14;;;;;;;6.82;2.33;;;;;;;12.90;96.58;102400.97;5073189;28;20052;-48
2022/07/06 01:21:43;;;;;;;5.60;2.10;;;;;;;12.95;96.41;102399.81;5072632;28;20072;-55
2022/07/06 01:24:11;;;;;;;5.40;2.10;;;;;;;12.92;97.24;102397.31;5072662;28;20079;-53
2022/07/06 01:26:39;;;;;;;6.90;1.90;;;;;;;12.95;96.88;102399.81;5072385;28;20375;-48
2022/07/06 01:29:07;;;;;;;8.85;1.98;;;;;;;13.03;96.42;102399.41;5071580;28;20056;-50
2022/07/06 01:31:35;;;;;;;3.78;1.63;;;;;;;13.05;96.07;102405.50;5070790;28;20067;-54
2022/07/06 01:34:04;;;;;;;4.60;1.75;;;;;;;12.96;96.16;102401.50;5071286;28;20052;-54
2022/07/06 01:36:31;;;;;;;5.22;1.52;;;;;;;13.05;96.07;102400.22;5072884;28;20044;-58
2022/07/06 01:39:01;;;;;;;6.82;1.50;;;;;;;13.01;96.50;102401.28;5072390;28;20102;-59
2022/07/06 01:41:29;;;;;;;4.60;1.50;;;;;;;12.96;96.75;102395.38;5072718;28;20494;-57
2022/07/06 01:43:57;;;;;;;5.38;1.52;;;;;;;12.92;97.06;102397.31;5073336;28;20090;-57
2022/07/06 01:46:25;;;;;;;3.63;1.45;;;;;;;12.93;96.71;102401.66;5072339;28;20075;-53
2022/07/06 01:48:53;;;;;;;3.85;1.60;;;;;;;12.87;96.89;102398.47;5072549;28;20051;-56
2022/07/06 01:51:21;;;;;;;5.60;1.55;;;;;;;12.85;97.66;102403.84;5072897;28;20060;-58
2022/07/06 01:53:50;;;;;;;6.60;1.52;;;;;;;12.76;97.03;102394.63;5071524;28;20052;-57
2022/07/06 01:56:20;;;;;;;4.72;1.42;;;;;;;12.76;97.15;102396.38;5072550;28;20049;-58
2022/07/06 01:58:48;;;;;;;4.60;1.73;;;;;;;12.78;97.33;102400.66;5073225;28;20052;-58
2022/07/06 02:01:19;;;;;;;7.15;1.38;;;;;;;12.73;97.11;102389.47;5071850;28;20337;-58
2022/07/06 02:03:48;;;;;;;5.88;1.40;;;;;;;12.64;98.64;102398.72;5071203;28;20094;-51
2022/07/06 02:06:16;;;;;;;5.40;1.58;;;;;;;12.64;98.83;102396.06;5071923;28;20040;-57
2022/07/06 02:08:44;;;;;;;3.33;1.23;;;;;;;12.58;99.31;102396.34;5072513;28;20091;-54
2022/07/06 02:11:12;;;;;;;4.30;1.58;;;;;;;12.56;98.77;102392.94;5059328;28;20434;-49
2022/07/06 02:13:42;;;;;;;5.93;1.52;;;;;;;12.53;99.24;102398.38;5070990;28;20463;-58
2022/07/06 02:16:10;;;;;;;5.22;1.67;;;;;;;12.52;99.50;102396.66;5072553;28;20079;-57
2022/07/06 02:18:39;;;;;;;4.80;1.70;;;;;;;12.52;99.21;102400.16;5072340;28;20056;-53
2022/07/06 02:21:07;;;;;;;6.88;1.75;;;;;;;12.55;99.36;102406.22;5071903;28;20072;-53
2022/07/06 02:23:35;;;;;;;3.20;1.60;;;;;;;12.44;100.00;102406.75;5072379;28;20491;-50
2022/07/06 02:26:04;;;;;;;8.55;1.75;;;;;;;12.40;100.00;102403.38;5072501;28;20110;-57
2022/07/06 02:28:32;;;;;;;2.35;1.30;;;;;;;12.43;100.00;102399.75;5071958;28;20209;-51
2022/07/06 02:31:02;;;;;;;6.35;1.63;;;;;;;12.49;99.66;102407.38;5069900;28;20051;-57
2022/07/06 02:33:30;;;;;;;4.10;1.60;;;;;;;12.40;99.92;102402.53;5069873;28;20052;-52
2022/07/06 02:35:58;;;;;;;4.70;1.52;;;;;;;12.38;100.00;102396.47;5072811;28;20059;-58
2022/07/06 02:38:26;;;;;;;4.75;1.73;;;;;;;12.37;100.00;102403.53;5074741;28;20040;-57
2022/07/06 02:40:54;;;;;;;5.78;1.58;;;;;;;12.46;99.55;102407.50;5075032;28;20067;-49
2022/07/06 02:43:22;;;;;;;5.22;1.63;;;;;;;12.36;100.00;102412.38;5072193;28;20032;-48
2022/07/06 02:45:50;;;;;;;4.82;1.52;;;;;;;12.36;100.00;102408.91;5075256;28;20071;-53
2022/07/06 02:48:21;;;;;;;4.93;1.60;;;;;;;12.34;100.00;102407.19;5075660;28;20105;-58
2022/07/06 02:50:50;;;;;;;8.15;2.10;;;;;;;12.37;100.00;102411.47;5075881;28;20152;-56
2022/07/06 02:53:18;;;;;;;3.65;1.25;;;;;;;12.32;100.00;102398.50;5076224;28;20044;-49
2022/07/06 02:55:46;;;;;;;4.38;1.73;;;;;;;12.22;100.00;102402.50;5076306;28;20079;-52
2022/07/06 02:58:14;;;;;;;3.97;1.55;;;;;;;12.27;100.00;102407.53;5073433;28;20055;-57
2022/07/06 03:00:42;;;;;;;4.65;1.63;;;;;;;12.25;100.00;102404.13;5076185;28;20056;-50
2022/07/06 03:03:10;;;;;;;8.15;2.42;;;;;;;12.27;100.00;102404.91;5076010;28;20503;-52
2022/07/06 03:05:40;;;;;;;6.75;1.80;;;;;;;12.15;100.00;102401.91;5075905;28;20442;-58
2022/07/06 03:08:08;;;;;;;7.05;2.38;;;;;;;12.07;100.00;102401.44;5071551;28;20563;-50
2022/07/06 03:10:36;;;;;;;7.38;2.20;;;;;;;11.95;100.00;102402.84;5075410;28;20052;-52
2022/07/06 03:13:04;;;;;;;5.18;1.88;;;;;;;11.89;100.00;102404.88;5074977;28;20043;-57
2022/07/06 03:15:32;;;;;;;5.63;2.03;;;;;;;11.95;100.00;102410.75;5074811;28;20098;-52
2022/07/06 03:18:00;;;;;;;4.68;1.90;;;;;;;12.03;100.00;102409.56;5075600;28;20068;-57
2022/07/06 03:20:28;;;;;;;6.15;2.00;;;;;;;12.04;100.00;102411.25;5072922;28;20302;-52
2022/07/06 03:22:57;;;;;;;5.43;2.17;;;;;;;11.97;100.00;102416.81;5072364;28;20056;-58
2022/07/06 03:25:25;;;;;;;7.72;2.22;;;;;;;11.99;100.00;102420.22;5074925;28;20056;-57
2022/07/06 03:27:53;;;;;;;6.45;2.42;;;;;;;11.90;100.00;102420.66;5075018;28;20123;-49
2022/07/06 03:30:22;;;;;;;6.22;2.15;;;;;;;11.90;100.00;102420.66;5075416;28;20450;-57
2022/07/06 03:32:50;;;;;;;7.18;2.20;;;;;;;11.93;100.00;102424.91;5075389;28;20098;-58
2022/07/06 03:35:18;;;;;;;6.05;2.33;;;;;;;11.87;100.00;102420.75;5075370;28;20048;-51
2022/07/06 03:37:46;;;;;;;5.88;2.60;;;;;;;11.83;100.00;102413.91;5073835;28;20426;-53
2022/07/06 03:40:16;;;;;;;6.90;2.30;;;;;;;11.89;100.00;102423.31;5075571;28;20127;-49
2022/07/06 03:42:44;;;;;;;6.80;2.67;;;;;;;11.87;100.00;102419.91;5075265;28;20136;-50
2022/07/06 03:45:12;;;;;;;6.60;2.58;;;;;;;11.97;100.00;102421.22;5075620;28;20044;-58
2022/07/06 03:47:40;;;;;;;6.80;2.50;;;;;;;11.98;100.00;102417.66;5072080;28;20044;-52
2022/07/06 03:50:09;;;;;;;7.43;2.67;;;;;;;11.97;100.00;102414.19;5073371;28;20128;-57
2022/07/06 03:52:39;;;;;;;5.38;2.30;;;;;;;12.02;100.00;102416.59;5075111;28;20121;-58
2022/07/06 03:55:10;;;;;;;7.35;2.67;;;;;;;12.02;100.00;102419.22;5059186;28;20032;-51
2022/07/06 03:57:40;;;;;;;5.88;2.33;;;;;;;12.07;100.00;102421.69;5075191;28;20072;-58
2022/07/06 04:00:11;;;;;;;4.93;2.10;;;;;;;12.10;100.00;102416.25;5075229;28;20037;-58
2022/07/06 04:02:39;;;;;;;6.25;2.60;;;;;;;12.19;100.00;102418.47;5075202;28;20044;-58
2022/07/06 04:05:08;;;;;;;8.25;2.30;;;;;;;12.19;100.00;102421.09;5074956;28;20037;-59
2022/07/06 04:07:36;;;;;;;9.07;3.58;;;;;;;12.23;100.00;102417.41;5074960;28;20048;-57
2022/07/06 04:10:04;;;;;;;4.75;2.30;;;;;;;12.29;100.00;102417.09;5074411;28;20060;-52
2022/07/06 04:12:32;;;;;;;5.22;2.15;;;;;;;12.28;100.00;102422.44;5074931;28;20053;-58
2022/07/06 04:15:02;;;;;;;5.25;2.20;;;;;;;12.38;100.00;102412.31;5073731;28;20044;-50
2022/07/06 04:20:16;;;;;;;6.57;2.17;;;;;;;12.39;100.00;102414.03;5072639;28;20247;-52
2022/07/06 04:22:44;;;;;;;6.55;2.30;;;;;;;12.50;100.00;102409.06;5071672;28;20080;-51
2022/07/06 04:25:12;;;;;;;6.50;2.70;;;;;;;12.55;100.00;102414.97;5072720;28;20385;-51
2022/07/06 04:27:40;;;;;;;8.18;2.40;;;;;;;12.47;100.00;102404.78;5073717;28;20055;-60
2022/07/06 04:30:11;;;;;;;8.05;2.20;;;;;;;12.56;100.00;102414.06;5073501;28;20048;-48
2022/07/06 04:32:39;;;;;;;7.80;2.58;;;;;;;12.64;100.00;102411.06;5073600;28;20051;-50
2022/07/06 04:35:08;;;;;;;9.05;2.53;;;;;;;12.65;100.00;102412.75;5073351;28;20531;-58
2022/07/06 04:37:37;;;;;;;5.18;2.17;;;;;;;12.68;100.00;102408.19;5073993;28;20091;-49
2022/07/06 04:40:06;;;;;;;6.05;1.95;;;;;;;12.76;100.00;102404.28;5071621;28;20503;-52
2022/07/06 04:42:34;;;;;;;7.45;2.25;;;;;;;12.88;100.00;102398.41;5074225;28;20056;-53
2022/07/06 04:45:02;;;;;;;6.18;2.35;;;;;;;12.92;100.00;102401.75;5069427;28;20123;-52
2022/07/06 04:47:31;;;;;;;4.18;1.83;;;;;;;12.96;100.00;102409.44;5070531;28;20152;-52
2022/07/06 04:49:59;;;;;;;6.32;2.08;;;;;;;13.00;100.00;102405.69;5073114;28;20036;-50
2022/07/06 04:52:28;;;;;;;7.82;2.47;;;;;;;12.96;100.00;102406.78;5066966;28;20053;-50
2022/07/06 04:54:56;;;;;;;6.07;2.33;;;;;;;13.05;100.00;102400.22;5072987;28;20045;-52
2022/07/06 04:57:25;;;;;;;7.65;2.53;;;;;;;13.12;100.00;102406.03;5070812;28;20048;-48
2022/07/06 04:59:53;;;;;;;5.07;2.10;;;;;;;13.17;100.00;102403.97;5063778;28;20415;-50
2022/07/06 05:02:21;;;;;;;6.40;2.20;;;;;;;13.22;100.00;102404.59;5072638;28;20075;-57
2022/07/06 05:04:51;;;;;;;5.85;2.10;;;;;;;13.30;100.00;102404.22;5073473;28;20048;-49
2022/07/06 05:07:19;;;;;;;4.57;2.10;;;;;;;13.35;100.00;102395.16;5072508;28;20384;-50
2022/07/06 05:09:47;;;;;;;4.40;1.92;;;;;;;13.45;100.00;102399.97;5072595;28;20449;-53
2022/07/06 05:12:19;;;;;;;6.38;2.28;;;;;;;13.51;100.00;102396.97;5071815;28;20050;-51
2022/07/06 05:14:47;;;;;;;6.38;2.10;;;;;;;13.60;100.00;102399.13;5071872;28;20055;-49
2022/07/06 05:17:15;;;;;;;7.10;2.40;;;;;;;13.67;100.00;102411.13;5072736;28;20071;-57
2022/07/06 05:19:43;;;;;;;5.43;2.55;;;;;;;13.76;100.00;102406.25;5071133;28;20109;-57
2022/07/06 05:22:12;;;;;;;5.70;2.28;;;;;;;13.76;100.00;102403.63;5068820;28;20049;-57
2022/07/06 05:24:40;;;;;;;6.97;2.10;;;;;;;13.82;100.00;102408.56;5072739;28;20141;-48
2022/07/06 05:27:08;;;;;;;6.55;2.42;;;;;;;13.74;100.00;102416.06;5071920;28;20438;-57
2022/07/06 05:29:36;;;;;;;6.35;2.05;;;;;;;13.80;100.00;102418.38;5072153;28;20044;-51
2022/07/06 05:32:05;;;;;;;7.15;1.85;;;;;;;13.87;100.00;102425.03;5071908;28;20416;-49
2022/07/06 05:34:33;;;;;;;5.00;1.80;;;;;;;14.00;98.74;102425.22;5072173;28;20058;-50
2022/07/06 05:37:01;;;;;;;6.40;1.70;;;;;;;14.03;98.26;102431.19;5069856;28;20495;-51
2022/07/06 05:39:30;;;;;;;5.15;1.45;;;;;;;14.06;97.42;102424.88;5069687;28;20101;-57
2022/07/06 05:41:58;;;;;;;6.88;1.52;;;;;;;14.17;97.74;102425.16;5071561;28;20093;-57
2022/07/06 05:44:26;;;;;;;6.68;1.50;;;;;;;14.27;96.41;102428.13;5072697;28;20476;-57
2022/07/06 05:50:11;;;;;;;10.98;1.60;;;;;;;14.29;95.91;102431.56;5072334;28;20056;-58
2022/07/06 05:52:28;;;;;;;7.95;1.63;;;;;;;14.49;97.14;102432.22;5069639;28;20435;-57
2022/07/06 05:54:58;;;;;;;5.07;1.63;;;;;;;14.59;96.04;102436.06;5068670;28;20033;-54
2022/07/06 05:57:26;;;;;;;4.72;1.30;;;;;;;14.68;95.89;102432.94;5067308;28;20048;-57
2022/07/06 05:59:54;;;;;;;7.45;1.77;;;;;;;14.78;95.46;102432.38;5069411;28;20044;-57
2022/07/06 06:02:22;;;;;;;4.72;1.38;;;;;;;14.88;94.18;102438.84;5072462;28;20090;-57
2022/07/06 06:04:50;;;;;;;4.22;1.35;;;;;;;14.91;93.69;102437.81;5072154;28;20480;-57
2022/07/06 06:07:18;;;;;;;3.97;1.20;;;;;;;14.96;92.70;102439.25;5071438;28;20526;-57
2022/07/06 06:09:46;;;;;;;6.05;1.40;;;;;;;15.08;92.28;102439.47;5070144;28;20071;-57
2022/07/06 06:12:15;;;;;;;4.22;1.35;;;;;;;15.20;91.48;102444.03;5072134;28;20553;-57
2022/07/06 06:14:43;;;;;;;6.65;1.35;;;;;;;15.31;90.05;102444.28;5063313;28;20147;-51
2022/07/06 06:17:11;;;;;;;3.67;1.20;;;;;;;15.45;90.54;102439.94;5070084;28;20048;-50
2022/07/06 06:19:39;;;;;;;5.68;1.33;;;;;;;15.57;89.06;102440.97;5068071;28;20118;-56
2022/07/06 06:22:07;;;;;;;2.53;1.15;;;;;;;15.67;89.37;102437.66;5068677;28;20040;-57
2022/07/06 06:24:35;;;;;;;4.32;1.33;;;;;;;15.78;90.27;102439.66;5072321;28;20072;-58
2022/07/06 06:27:04;;;;;;;3.35;1.10;;;;;;;15.88;86.93;102445.25;5072618;28;20149;-56
2022/07/06 06:29:33;;;;;;;1.45;1.00;;;;;;;15.95;86.38;102449.25;5071989;28;20569;-57
2022/07/06 06:32:02;;;;;;;3.78;1.05;;;;;;;16.10;85.73;102451.88;5071360;28;20072;-57
2022/07/06 06:34:30;;;;;;;4.07;1.30;;;;;;;16.24;84.40;102449.22;5068307;28;20052;-56
2022/07/06 06:36:58;;;;;;;3.83;1.05;;;;;;;16.34;83.30;102447.66;5071307;28;20119;-54
2022/07/06 06:39:27;;;;;;;4.95;1.10;;;;;;;16.51;83.09;102443.94;5071860;28;20060;-54
2022/07/06 06:41:55;;;;;;;4.50;0.95;;;;;;;16.64;78.51;102441.31;5072467;28;20502;-58
2022/07/06 06:44:23;;;;;;;8.18;0.95;;;;;;;16.75;78.96;102445.91;5071758;28;20049;-51
2022/07/06 06:46:53;;;;;;;4.95;0.80;;;;;;;16.92;79.21;102444.84;5069107;28;20053;-58
2022/07/06 06:49:21;;;;;;;4.32;1.00;;;;;;;17.03;76.52;102442.31;5068989;28;20460;-58
2022/07/06 06:51:49;;;;;;;5.65;1.17;;;;;;;17.20;76.53;102448.28;5071935;28;20105;-58
2022/07/06 06:54:17;;;;;;;4.38;0.88;;;;;;;17.31;76.20;102447.53;5071587;28;20063;-57
2022/07/06 06:56:45;;;;;;;3.28;0.98;;;;;;;17.52;76.95;102445.19;5068820;28;20394;-58
2022/07/06 06:59:13;;;;;;;5.65;0.75;;;;;;;17.63;73.61;102447.97;5071150;28;20480;-58
2022/07/06 07:01:45;;;;;;;2.25;0.80;;;;;;;17.66;71.33;102441.59;5072054;28;20106;-57
2022/07/06 07:04:19;;;;;;;6.38;1.00;;;;;;;17.82;71.93;102450.19;5071755;28;20052;-57
2022/07/06 07:06:47;;;;;;;2.95;0.70;;;;;;;17.79;71.00;102452.22;5071718;28;20087;-49
2022/07/06 07:09:15;;;;;;;6.07;1.00;;;;;;;17.89;72.60;102450.63;5071514;28;20109;-49
2022/07/06 07:11:43;;;;;;;3.75;1.05;;;;;;;17.95;71.68;102457.34;5071104;28;20127;-57
2022/07/06 07:14:11;;;;;;;2.47;0.60;;;;;;;18.06;70.34;102455.63;5071563;28;20543;-50
2022/07/06 07:16:39;;;;;;;3.95;0.90;;;;;;;17.97;70.70;102452.75;5071481;28;20045;-57
2022/07/06 07:19:07;;;;;;;3.72;0.73;;;;;;;17.96;69.84;102449.25;5071473;28;20125;-57
2022/07/06 07:21:36;;;;;;;3.88;1.05;;;;;;;17.98;69.26;102465.94;5068779;28;20044;-56
2022/07/06 07:24:04;;;;;;;5.95;0.80;;;;;;;18.19;68.34;102462.72;5071866;28;20094;-56
2022/07/06 07:26:37;;;;;;;;;;;;;;;18.21;68.44;102463.44;5075914;28;20040;-57
2022/07/06 07:29:05;;;;;;;2.75;0.60;;;;;;;18.33;69.32;102457.22;5075350;28;19921;-57
2022/07/06 07:31:33;;;;;;;4.78;1.05;;;;;;;18.61;69.66;102457.88;5075219;28;20083;-49
2022/07/06 07:34:01;;;;;;;3.67;1.00;;;;;;;18.79;67.89;102455.66;5075183;28;20495;-51
2022/07/06 07:36:29;;;;;;;4.07;1.05;;;;;;;18.98;66.32;102456.94;5074884;28;20364;-53
2022/07/06 07:38:58;;;;;;;3.38;1.05;;;;;;;19.15;67.26;102461.84;5074852;28;20530;-53
2022/07/06 07:41:26;;;;;;;5.93;0.90;;;;;;;19.21;65.10;102455.19;5074733;28;20087;-53
2022/07/06 07:43:54;;;;;;;3.63;0.80;;;;;;;18.95;65.54;102463.41;5074914;28;20364;-52
2022/07/06 07:46:22;;;;;;;7.43;0.98;;;;;;;18.90;64.91;102458.38;5074805;28;20040;-57
2022/07/06 07:48:51;;;;;;;1.27;0.70;;;;;;;18.79;64.85;102461.00;5073451;28;20070;-57
2022/07/06 07:51:19;;;;;;;7.00;1.08;;;;;;;18.91;64.37;102464.59;5071970;28;20059;-55
2022/07/06 07:53:47;;;;;;;4.13;0.90;;;;;;;19.05;61.61;102459.06;5072933;28;20094;-56
2022/07/06 07:56:17;;;;;;;6.15;0.75;;;;;;;19.35;62.02;102455.00;5074472;28;20056;-53
2022/07/06 07:58:45;;;;;;;2.50;0.65;;;;;;;19.56;60.66;102446.28;5073407;28;20700;-51
2022/07/06 08:01:13;;;;;;;3.47;0.70;;;;;;;19.60;57.29;102453.09;5070155;28;20132;-52
2022/07/06 08:03:41;;;;;;;3.40;0.75;;;;;;;19.59;57.07;102451.38;5071623;28;20589;-52
2022/07/06 08:06:09;;;;;;;3.30;0.70;;;;;;;19.81;56.74;102445.25;5074327;28;20094;-51
2022/07/06 08:08:37;;;;;;;3.42;0.63;;;;;;;20.01;55.45;102440.97;5074284;28;20430;-53
2022/07/06 08:11:07;;;;;;;3.42;0.98;;;;;;;20.32;53.40;102438.47;5074157;28;20037;-57
2022/07/06 08:13:47;;;;;;;3.78;0.68;;;;;;;20.68;53.25;102449.84;5073255;28;20147;-57
2022/07/06 08:16:15;;;;;;;2.95;0.60;;;;;;;20.84;50.86;102443.19;5074339;28;20407;-58
2022/07/06 08:18:43;;;;;;;3.05;0.50;;;;;;;20.92;50.75;102443.41;5074309;28;20052;-50
2022/07/06 08:21:12;;;;;;;2.83;0.63;;;;;;;21.17;49.53;102455.50;5074228;28;20048;-53
2022/07/06 08:23:56;;;;;;;3.33;0.55;;;;;;;21.22;49.32;102449.78;5072824;28;20083;-51
2022/07/06 08:26:24;;;;;;;4.10;0.70;;;;;;;21.34;48.08;102439.88;5068885;28;20372;-58
2022/07/06 08:28:54;;;;;;;2.95;0.47;;;;;;;21.53;48.72;102444.47;5075792;28;20954;-53
2022/07/06 08:31:22;;;;;;;2.70;1.00;;;;;;;21.59;47.84;102446.63;5094252;28;20048;-52
2022/07/06 08:34:10;;;;;;;3.28;0.60;;;;;;;21.89;48.47;102442.25;5094040;28;20071;-52
2022/07/06 08:36:38;;;;;;;0.80;0.32;;;;;;;21.93;47.69;102435.63;5092963;28;20072;-53
2022/07/06 08:39:07;;;;;;;3.28;0.60;;;;;;;21.99;47.08;102436.91;5093906;28;20055;-49
2022/07/06 08:41:37;;;;;;;3.42;0.70;;;;;;;22.02;46.13;102434.81;5093736;28;20142;-57
2022/07/06 08:44:07;;;;;;;5.60;0.82;;;;;;;21.90;45.54;102430.56;5092760;28;20113;-57
2022/07/06 08:46:38;;;;;;;0.80;0.40;;;;;;;21.91;45.59;102429.56;5090691;28;20048;-58
2022/07/06 08:49:07;;;;;;;2.28;0.50;;;;;;;21.68;44.72;102432.44;5091064;28;20426;-52
2022/07/06 08:51:37;;;;;;;3.35;0.70;;;;;;;21.36;44.37;102429.88;5093498;28;20105;-51
2022/07/06 08:54:05;;;;;;;1.55;0.40;;;;;;;21.50;44.73;102423.31;5091500;28;20051;-51
2022/07/06 08:56:33;;;;;;;4.15;0.50;;;;;;;21.86;43.72;102415.75;5088282;28;20878;-55
2022/07/06 08:59:02;;;;;;;1.98;0.50;;;;;;;22.28;43.84;102424.44;5093532;28;20060;-53
2022/07/06 09:01:33;;;;;;;4.13;0.73;;;;;;;22.36;44.50;102426.44;5093827;28;20475;-56
2022/07/06 09:04:07;;;;;;;3.08;0.60;;;;;;;21.96;43.27;102421.97;5092354;28;20044;-57
2022/07/06 09:06:36;;;;;;;2.80;0.63;;;;;;;22.00;44.18;102434.09;5093487;28;20148;-57
2022/07/06 09:09:07;;;;;;;1.63;0.50;;;;;;;21.94;41.57;102432.81;5093508;28;20052;-53
2022/07/06 09:11:37;;;;;;;4.13;0.45;;;;;;;21.77;42.12;102431.66;5093287;28;20055;-58
2022/07/06 09:14:05;;;;;;;2.15;0.50;;;;;;;21.63;40.96;102434.69;5093577;28;20052;-54
2022/07/06 09:16:35;;;;;;;5.15;0.80;;;;;;;21.86;41.32;102423.78;5093378;28;20048;-54
2022/07/06 09:19:06;;;;;;;;;;;;;;;22.17;41.32;102427.25;5094116;28;20105;-56
2022/07/06 09:21:36;;;;;;;1.48;0.43;;;;;;;22.25;40.64;102429.19;5093322;28;19920;-56
2022/07/06 09:24:09;;;;;;;0.98;0.30;;;;;;;22.41;42.00;102428.69;5093634;28;20079;-56
2022/07/06 09:26:37;;;;;;;2.17;0.50;;;;;;;22.17;39.37;102424.56;5093148;28;20044;-56
2022/07/06 09:29:06;;;;;;;2.40;0.57;;;;;;;22.33;41.92;102429.34;5091366;28;20040;-53
2022/07/06 09:31:35;;;;;;;1.33;0.45;;;;;;;22.21;41.62;102434.00;5089696;28;20052;-54
2022/07/06 09:34:06;;;;;;;2.17;0.50;;;;;;;22.03;40.34;102428.47;5091603;28;20072;-56
2022/07/06 09:36:43;;;;;;;1.48;0.40;;;;;;;21.89;40.74;102435.03;5092567;28;20040;-49
2022/07/06 09:39:18;;;;;;;2.78;0.50;;;;;;;21.81;40.00;102434.88;5092519;28;20048;-56
2022/07/06 09:41:47;;;;;;;2.13;0.50;;;;;;;21.89;40.76;102424.34;5091241;28;20833;-57
2022/07/06 09:44:20;;;;;;;2.80;0.57;;;;;;;22.17;41.05;102437.09;5090030;28;20051;-56
2022/07/06 09:46:50;;;;;;;2.25;0.50;;;;;;;22.52;40.25;102438.44;5092364;28;20056;-52
2022/07/06 09:49:19;;;;;;;3.97;0.50;;;;;;;22.36;39.79;102436.31;5093068;28;20117;-47
2022/07/06 09:51:48;;;;;;;2.47;0.60;;;;;;;22.74;40.47;102440.84;5076624;28;20053;-55
2022/07/06 09:54:17;;;;;;;2.80;0.40;;;;;;;22.99;39.78;102441.25;5061123;28;20552;-57
2022/07/06 09:56:50;;;;;;;1.23;0.43;;;;;;;22.74;38.03;102440.00;5085008;28;20042;-52
2022/07/06 09:59:21;;;;;;;2.53;0.43;;;;;;;23.05;39.27;102442.50;5071871;28;20047;-57
2022/07/06 10:01:52;;;;;;;2.58;0.70;;;;;;;23.31;39.96;102445.44;5076006;28;20044;-57
2022/07/06 10:04:21;;;;;;;1.35;0.40;;;;;;;23.44;39.56;102448.66;5075906;28;20048;-56
2022/07/06 10:06:50;;;;;;;1.00;0.50;;;;;;;22.95;38.96;102447.88;5072354;28;20036;-57
2022/07/06 10:09:20;;;;;;;2.03;0.60;;;;;;;22.79;39.02;102454.66;5079733;28;20040;-52
2022/07/06 10:11:50;;;;;;;2.00;0.43;;;;;;;22.77;39.70;102443.25;5072418;28;20414;-57
2022/07/06 10:14:21;;;;;;;0.47;0.25;;;;;;;22.66;39.78;102448.75;5072078;28;20045;-50
2022/07/06 10:16:51;;;;;;;3.50;0.70;;;;;;;22.89;40.09;102443.09;5070721;28;20040;-51
2022/07/06 10:19:21;;;;;;;2.17;0.50;;;;;;;23.20;41.21;102451.81;5068877;28;20716;-50
2022/07/06 10:21:51;;;;;;;1.65;0.60;;;;;;;23.29;38.75;102447.44;5071417;28;20102;-56
2022/07/06 10:24:20;;;;;;;3.10;0.60;;;;;;;23.54;39.24;102445.94;5072035;28;20053;-57
2022/07/06 10:26:49;;;;;;;2.35;0.47;;;;;;;23.80;39.45;102446.13;5072195;28;20048;-48
2022/07/06 10:29:17;;;;;;;2.55;0.52;;;;;;;23.84;38.83;102449.34;5070389;28;20137;-56
2022/07/06 10:31:47;;;;;;;2.75;0.50;;;;;;;23.46;38.19;102446.69;5068995;28;20479;-56
2022/07/06 10:34:19;;;;;;;2.88;0.45;;;;;;;23.35;38.79;102456.75;5071059;28;20052;-47
2022/07/06 10:36:50;;;;;;;1.45;0.32;;;;;;;23.50;37.21;102446.38;5069385;28;20079;-50
2022/07/06 10:42:45;;;;;;;2.05;0.70;;;;;;;24.09;37.81;102431.69;5069955;28;20562;-54
2022/07/06 10:45:15;;;;;;;1.83;0.40;;;;;;;24.25;37.43;102436.38;5069236;28;20066;-57
2022/07/06 10:47:44;;;;;;;1.98;0.40;;;;;;;24.52;36.55;102434.63;5071757;28;20055;-55
2022/07/06 10:50:13;;;;;;;3.55;0.50;;;;;;;24.77;35.87;102441.13;5071897;28;20036;-53
2022/07/06 10:52:59;;;;;;;2.42;0.40;;;;;;;24.92;34.85;102432.47;5071680;28;20094;-49
2022/07/06 10:55:32;;;;;;;1.02;0.40;;;;;;;24.62;35.38;102431.91;5071638;28;20048;-56
2022/07/06 10:58:00;;;;;;;;;;;;;;;24.20;35.31;102436.03;5072405;28;20083;-56
2022/07/06 11:00:48;;;;;;;0.57;0.13;;;;;;;24.21;35.27;102432.31;5075575;28;20004;-54
2022/07/06 11:03:37;;;;;;;0.85;0.22;;;;;;;24.95;35.30;102424.94;5075639;28;20064;-54
2022/07/06 11:06:15;;;;;;;1.63;0.70;;;;;;;24.38;34.45;102427.97;5071992;28;20067;-54
2022/07/06 11:08:59;;;;;;;1.52;0.40;;;;;;;24.43;35.04;102420.28;5073443;28;20040;-55
2022/07/06 11:11:38;;;;;;;2.08;0.50;;;;;;;24.32;34.76;102419.66;5074506;28;20479;-56
2022/07/06 11:14:08;;;;;;;1.48;0.50;;;;;;;24.42;35.02;102421.28;5075519;28;20052;-55
2022/07/06 11:16:39;;;;;;;2.17;0.50;;;;;;;24.42;36.45;102410.53;5075498;28;20128;-56
2022/07/06 11:19:10;;;;;;;1.23;0.38;;;;;;;24.64;35.12;102411.09;5074884;28;20694;-54
2022/07/06 11:21:46;;;;;;;3.70;0.73;;;;;;;25.07;35.56;102413.91;5072486;28;20089;-54
2022/07/06 11:24:17;;;;;;;2.20;0.47;;;;;;;25.57;35.53;102410.50;5074336;28;20052;-55
2022/07/06 11:26:47;;;;;;;3.47;0.50;;;;;;;25.54;35.54;102412.69;5075254;28;20434;-50
2022/07/06 11:29:18;;;;;;;2.30;0.63;;;;;;;25.17;36.19;102416.50;5074924;28;20082;-53
2022/07/06 11:31:47;;;;;;;2.30;0.60;;;;;;;25.30;35.36;102412.38;5075017;28;20401;-55
2022/07/06 11:34:19;;;;;;;4.15;0.65;;;;;;;25.28;35.99;102411.69;5074965;28;20407;-55
2022/07/06 11:36:49;;;;;;;3.53;0.50;;;;;;;25.16;35.70;102412.13;5074732;28;20495;-55
2022/07/06 11:39:17;;;;;;;1.27;0.50;;;;;;;25.40;34.97;102404.22;5071723;28;20049;-55
2022/07/06 11:41:45;;;;;;;2.33;0.60;;;;;;;26.03;34.44;102394.03;5069690;28;20052;-53
2022/07/06 11:44:19;;;;;;;2.10;0.50;;;;;;;26.16;34.45;102388.16;5073094;28;20396;-56